sensor_id;sensor_type;location;lat;lon;timestamp;pressure;altitude;pressure_sealevel;temperature;humidity
10460;BME280;54412;51.206;6.888;2022-10-22T00:01:13;100360.09;;;15.40;90.94
10460;BME280;54412;51.206;6.888;2022-10-22T00:03:39;100360.84;;;15.42;91.44
10460;BME280;54412;51.206;6.888;2022-10-22T00:06:05;100361.50;;;15.57;90.57
10460;BME280;54412;51.206;6.888;2022-10-22T00:08:31;100371.56;;;15.64;89.96
10460;BME280;54412;51.206;6.888;2022-10-22T00:10:57;100367.06;;;15.54;90.97
10460;BME280;54412;51.206;6.888;2022-10-22T00:13:23;100358.72;;;15.58;90.91
10460;BME280;54412;51.206;6.888;2022-10-22T00:15:49;100361.94;;;15.51;91.07
10460;BME280;54412;51.206;6.888;2022-10-22T00:18:15;100374.91;;;15.55;90.97
10460;BME280;54412;51.206;6.888;2022-10-22T00:20:41;100367.88;;;15.54;91.27
10460;BME280;54412;51.206;6.888;2022-10-22T00:23:07;100372.59;;;15.38;92.23
10460;BME280;54412;51.206;6.888;2022-10-22T00:25:35;100368.50;;;15.58;91.86
10460;BME280;54412;51.206;6.888;2022-10-22T00:28:02;100369.25;;;15.60;91.44
10460;BME280;54412;51.206;6.888;2022-10-22T00:30:28;100377.22;;;15.60;91.79
10460;BME280;54412;51.206;6.888;2022-10-22T00:32:53;100373.19;;;15.43;92.02
10460;BME280;54412;51.206;6.888;2022-10-22T00:35:19;100382.94;;;15.43;91.83
10460;BME280;54412;51.206;6.888;2022-10-22T00:37:45;100377.69;;;15.54;91.58
10460;BME280;54412;51.206;6.888;2022-10-22T00:40:11;100380.56;;;15.51;91.49
10460;BME280;54412;51.206;6.888;2022-10-22T00:42:37;100374.13;;;15.30;92.33
10460;BME280;54412;51.206;6.888;2022-10-22T00:47:40;100368.97;;;15.52;91.79
10460;BME280;54412;51.206;6.888;2022-10-22T00:50:58;100369.28;;;15.71;91.05
10460;BME280;54412;51.206;6.888;2022-10-22T00:53:00;100370.84;;;15.62;91.46
10460;BME280;54412;51.206;6.888;2022-10-22T00:55:27;100366.09;;;15.55;91.93
10460;BME280;54412;51.206;6.888;2022-10-22T00:57:56;100370.91;;;15.50;92.05
10460;BME280;54412;51.206;6.888;2022-10-22T01:00:23;100370.66;;;15.53;92.15
10460;BME280;54412;51.206;6.888;2022-10-22T01:02:51;100371.16;;;15.58;92.26
10460;BME280;54412;51.206;6.888;2022-10-22T01:05:18;100366.75;;;15.69;91.66
10460;BME280;54412;51.206;6.888;2022-10-22T01:07:50;100370.47;;;15.67;91.66
10460;BME280;54412;51.206;6.888;2022-10-22T01:22:38;100355.81;;;15.96;90.02
10460;BME280;54412;51.206;6.888;2022-10-22T01:28:13;100349.28;;;15.54;92.13
10460;BME280;54412;51.206;6.888;2022-10-22T01:30:47;100349.56;;;15.62;92.18
10460;BME280;54412;51.206;6.888;2022-10-22T01:33:20;100352.47;;;15.70;92.26
10460;BME280;54412;51.206;6.888;2022-10-22T01:35:48;100348.47;;;15.65;92.80
10460;BME280;54412;51.206;6.888;2022-10-22T01:38:19;100339.53;;;15.66;92.14
10460;BME280;54412;51.206;6.888;2022-10-22T01:40:47;100351.25;;;15.98;89.97
10460;BME280;54412;51.206;6.888;2022-10-22T01:43:13;100340.03;;;15.71;91.80
10460;BME280;54412;51.206;6.888;2022-10-22T01:45:51;100341.72;;;15.61;92.57
10460;BME280;54412;51.206;6.888;2022-10-22T01:49:12;100341.22;;;15.67;92.35
10460;BME280;54412;51.206;6.888;2022-10-22T01:51:47;100337.06;;;15.76;91.71
10460;BME280;54412;51.206;6.888;2022-10-22T01:54:28;100343.88;;;15.56;92.90
10460;BME280;54412;51.206;6.888;2022-10-22T01:57:30;100333.94;;;15.93;91.83
10460;BME280;54412;51.206;6.888;2022-10-22T02:00:11;100348.50;;;15.76;92.18
10460;BME280;54412;51.206;6.888;2022-10-22T02:03:27;100340.97;;;15.59;92.76
10460;BME280;54412;51.206;6.888;2022-10-22T02:06:02;100339.00;;;15.50;93.69
10460;BME280;54412;51.206;6.888;2022-10-22T02:08:32;100338.28;;;15.48;93.73
10460;BME280;54412;51.206;6.888;2022-10-22T02:11:01;100337.19;;;15.50;93.23
10460;BME280;54412;51.206;6.888;2022-10-22T02:13:33;100335.53;;;15.60;93.16
10460;BME280;54412;51.206;6.888;2022-10-22T02:16:04;100331.28;;;15.58;93.30
10460;BME280;54412;51.206;6.888;2022-10-22T02:18:34;100347.22;;;15.58;93.23
10460;BME280;54412;51.206;6.888;2022-10-22T02:21:03;100344.75;;;15.67;92.94
10460;BME280;54412;51.206;6.888;2022-10-22T02:23:30;100348.59;;;15.63;92.59
10460;BME280;54412;51.206;6.888;2022-10-22T02:26:06;100347.66;;;15.64;92.58
10460;BME280;54412;51.206;6.888;2022-10-22T02:31:26;100353.34;;;15.47;93.36
10460;BME280;54412;51.206;6.888;2022-10-22T02:33:59;100352.97;;;15.64;92.84
10460;BME280;54412;51.206;6.888;2022-10-22T02:36:27;100349.13;;;15.68;92.79
10460;BME280;54412;51.206;6.888;2022-10-22T02:38:54;100354.19;;;15.72;92.41
10460;BME280;54412;51.206;6.888;2022-10-22T02:41:20;100356.56;;;15.63;93.05
10460;BME280;54412;51.206;6.888;2022-10-22T02:43:54;100363.19;;;15.58;92.85
10460;BME280;54412;51.206;6.888;2022-10-22T02:46:20;100356.31;;;15.55;93.28
10460;BME280;54412;51.206;6.888;2022-10-22T02:48:46;100347.34;;;15.56;93.20
10460;BME280;54412;51.206;6.888;2022-10-22T02:51:12;100361.75;;;15.65;93.23
10460;BME280;54412;51.206;6.888;2022-10-22T02:53:38;100361.13;;;15.85;91.47
10460;BME280;54412;51.206;6.888;2022-10-22T02:56:04;100358.19;;;15.77;92.00
10460;BME280;54412;51.206;6.888;2022-10-22T02:58:30;100354.88;;;15.62;92.20
10460;BME280;54412;51.206;6.888;2022-10-22T03:00:55;100363.53;;;15.77;92.14
10460;BME280;54412;51.206;6.888;2022-10-22T03:03:21;100359.16;;;15.76;92.05
10460;BME280;54412;51.206;6.888;2022-10-22T03:05:47;100361.38;;;15.58;92.76
10460;BME280;54412;51.206;6.888;2022-10-22T03:08:14;100366.31;;;15.52;92.89
10460;BME280;54412;51.206;6.888;2022-10-22T03:10:39;100360.53;;;15.58;92.76
10460;BME280;54412;51.206;6.888;2022-10-22T03:13:05;100359.16;;;15.52;93.28
10460;BME280;54412;51.206;6.888;2022-10-22T03:15:31;100370.09;;;15.60;91.93
10460;BME280;54412;51.206;6.888;2022-10-22T03:17:56;100357.03;;;15.57;92.63
10460;BME280;54412;51.206;6.888;2022-10-22T03:20:22;100364.91;;;15.59;92.18
10460;BME280;54412;51.206;6.888;2022-10-22T03:22:48;100367.97;;;15.77;91.05
10460;BME280;54412;51.206;6.888;2022-10-22T03:25:19;100366.63;;;15.71;91.16
10460;BME280;54412;51.206;6.888;2022-10-22T03:27:47;100363.53;;;15.53;92.07
10460;BME280;54412;51.206;6.888;2022-10-22T03:30:14;100367.75;;;15.45;93.07
10460;BME280;54412;51.206;6.888;2022-10-22T03:32:39;100366.66;;;15.35;93.16
10460;BME280;54412;51.206;6.888;2022-10-22T03:35:06;100370.91;;;15.50;92.62
10460;BME280;54412;51.206;6.888;2022-10-22T03:37:32;100369.53;;;15.44;92.81
10460;BME280;54412;51.206;6.888;2022-10-22T03:39:59;100371.72;;;15.27;92.90
10460;BME280;54412;51.206;6.888;2022-10-22T03:42:25;100378.72;;;15.28;93.14
10460;BME280;54412;51.206;6.888;2022-10-22T03:44:51;100382.78;;;15.21;92.71
10460;BME280;54412;51.206;6.888;2022-10-22T03:47:17;100378.22;;;15.23;92.55
10460;BME280;54412;51.206;6.888;2022-10-22T03:49:43;100376.53;;;15.22;92.20
10460;BME280;54412;51.206;6.888;2022-10-22T03:52:12;100378.13;;;15.48;91.71
10460;BME280;54412;51.206;6.888;2022-10-22T03:54:39;100386.75;;;15.39;92.47
10460;BME280;54412;51.206;6.888;2022-10-22T03:57:05;100383.69;;;15.45;92.25
10460;BME280;54412;51.206;6.888;2022-10-22T03:59:40;100376.59;;;15.56;92.09
10460;BME280;54412;51.206;6.888;2022-10-22T04:02:07;100372.50;;;15.40;92.08
10460;BME280;54412;51.206;6.888;2022-10-22T04:04:34;100385.72;;;15.41;92.52
10460;BME280;54412;51.206;6.888;2022-10-22T04:07:00;100387.53;;;15.28;93.11
10460;BME280;54412;51.206;6.888;2022-10-22T04:09:26;100386.13;;;15.35;93.02
10460;BME280;54412;51.206;6.888;2022-10-22T04:11:51;100388.88;;;15.46;92.36
10460;BME280;54412;51.206;6.888;2022-10-22T04:14:17;100399.31;;;15.37;92.99
10460;BME280;54412;51.206;6.888;2022-10-22T04:16:43;100401.09;;;15.49;92.78
10460;BME280;54412;51.206;6.888;2022-10-22T04:19:08;100404.59;;;15.49;92.93
10460;BME280;54412;51.206;6.888;2022-10-22T04:21:34;100397.38;;;15.39;93.83
10460;BME280;54412;51.206;6.888;2022-10-22T04:24:00;100403.56;;;15.39;93.23
10460;BME280;54412;51.206;6.888;2022-10-22T04:26:26;100409.75;;;15.27;93.06
10460;BME280;54412;51.206;6.888;2022-10-22T04:28:52;100413.44;;;15.37;93.00
10460;BME280;54412;51.206;6.888;2022-10-22T04:31:24;100417.09;;;15.24;94.14
10460;BME280;54412;51.206;6.888;2022-10-22T04:33:58;100416.09;;;15.37;93.13
10460;BME280;54412;51.206;6.888;2022-10-22T04:36:25;100420.16;;;15.30;93.27
10460;BME280;54412;51.206;6.888;2022-10-22T04:38:57;100427.28;;;15.30;92.78
10460;BME280;54412;51.206;6.888;2022-10-22T04:41:27;100426.53;;;15.28;93.25
10460;BME280;54412;51.206;6.888;2022-10-22T04:43:55;100420.53;;;15.49;92.52
10460;BME280;54412;51.206;6.888;2022-10-22T04:46:21;100419.63;;;15.38;93.34
10460;BME280;54412;51.206;6.888;2022-10-22T04:48:47;100430.25;;;15.38;92.76
10460;BME280;54412;51.206;6.888;2022-10-22T04:51:18;100425.47;;;15.30;92.75
10460;BME280;54412;51.206;6.888;2022-10-22T04:53:45;100433.31;;;15.44;91.79
10460;BME280;54412;51.206;6.888;2022-10-22T04:56:26;100434.44;;;15.17;92.69
10460;BME280;54412;51.206;6.888;2022-10-22T04:58:59;100430.84;;;15.18;92.58
10460;BME280;54412;51.206;6.888;2022-10-22T05:01:35;100436.28;;;15.04;93.54
10460;BME280;54412;51.206;6.888;2022-10-22T05:04:04;100432.69;;;14.92;92.79
10460;BME280;54412;51.206;6.888;2022-10-22T05:06:32;100439.78;;;14.92;92.66
10460;BME280;54412;51.206;6.888;2022-10-22T05:09:03;100433.19;;;14.97;92.19
10460;BME280;54412;51.206;6.888;2022-10-22T05:11:35;100437.59;;;14.86;92.76
10460;BME280;54412;51.206;6.888;2022-10-22T05:14:04;100450.00;;;14.98;92.24
10460;BME280;54412;51.206;6.888;2022-10-22T05:16:32;100441.19;;;14.85;92.39
10460;BME280;54412;51.206;6.888;2022-10-22T05:19:00;100455.81;;;15.03;91.66
10460;BME280;54412;51.206;6.888;2022-10-22T05:21:26;100446.72;;;14.94;92.06
10460;BME280;54412;51.206;6.888;2022-10-22T05:23:54;100452.09;;;15.18;92.00
10460;BME280;54412;51.206;6.888;2022-10-22T05:26:22;100450.66;;;15.37;91.34
10460;BME280;54412;51.206;6.888;2022-10-22T05:28:49;100447.69;;;15.42;91.16
10460;BME280;54412;51.206;6.888;2022-10-22T05:31:16;100456.22;;;15.22;91.92
10460;BME280;54412;51.206;6.888;2022-10-22T05:33:43;100459.13;;;15.06;92.13
10460;BME280;54412;51.206;6.888;2022-10-22T05:36:20;100459.34;;;15.03;92.22
10460;BME280;54412;51.206;6.888;2022-10-22T05:38:46;100460.97;;;15.29;92.30
10460;BME280;54412;51.206;6.888;2022-10-22T05:41:19;100463.91;;;15.01;92.88
10460;BME280;54412;51.206;6.888;2022-10-22T05:43:46;100478.16;;;15.36;91.57
10460;BME280;54412;51.206;6.888;2022-10-22T05:46:16;100469.22;;;15.01;92.90
10460;BME280;54412;51.206;6.888;2022-10-22T05:48:42;100471.66;;;14.92;93.01
10460;BME280;54412;51.206;6.888;2022-10-22T05:51:12;100469.94;;;15.16;91.91
10460;BME280;54412;51.206;6.888;2022-10-22T05:53:40;100473.22;;;15.19;91.82
10460;BME280;54412;51.206;6.888;2022-10-22T05:56:11;100483.00;;;15.06;91.72
10460;BME280;54412;51.206;6.888;2022-10-22T05:58:37;100485.25;;;15.12;91.45
10460;BME280;54412;51.206;6.888;2022-10-22T06:01:14;100490.97;;;15.19;89.99
10460;BME280;54412;51.206;6.888;2022-10-22T06:03:41;100496.19;;;15.08;91.25
10460;BME280;54412;51.206;6.888;2022-10-22T06:06:34;100498.81;;;15.20;91.13
10460;BME280;54412;51.206;6.888;2022-10-22T06:09:12;100502.09;;;15.36;90.64
10460;BME280;54412;51.206;6.888;2022-10-22T06:11:40;100497.38;;;15.16;91.30
10460;BME280;54412;51.206;6.888;2022-10-22T06:14:06;100497.69;;;15.12;92.53
10460;BME280;54412;51.206;6.888;2022-10-22T06:16:31;100505.19;;;15.30;91.76
10460;BME280;54412;51.206;6.888;2022-10-22T06:19:01;100500.50;;;15.34;91.49
10460;BME280;54412;51.206;6.888;2022-10-22T06:21:27;100506.78;;;15.45;91.11
10460;BME280;54412;51.206;6.888;2022-10-22T06:23:56;100511.94;;;15.72;89.23
10460;BME280;54412;51.206;6.888;2022-10-22T06:26:23;100515.91;;;15.54;89.94
10460;BME280;54412;51.206;6.888;2022-10-22T06:28:48;100524.63;;;15.31;92.37
10460;BME280;54412;51.206;6.888;2022-10-22T06:31:14;100528.38;;;15.16;93.15
10460;BME280;54412;51.206;6.888;2022-10-22T06:33:40;100534.09;;;15.22;93.28
10460;BME280;54412;51.206;6.888;2022-10-22T06:36:13;100547.50;;;15.21;92.85
10460;BME280;54412;51.206;6.888;2022-10-22T06:38:40;100552.91;;;15.32;92.28
10460;BME280;54412;51.206;6.888;2022-10-22T06:41:13;100557.63;;;15.41;91.80
10460;BME280;54412;51.206;6.888;2022-10-22T06:43:40;100548.66;;;15.42;91.79
10460;BME280;54412;51.206;6.888;2022-10-22T06:46:08;100556.63;;;15.54;90.83
10460;BME280;54412;51.206;6.888;2022-10-22T06:48:35;100559.50;;;15.39;91.96
10460;BME280;54412;51.206;6.888;2022-10-22T06:51:08;100569.72;;;15.32;92.44
10460;BME280;54412;51.206;6.888;2022-10-22T06:53:35;100579.09;;;15.50;91.98
10460;BME280;54412;51.206;6.888;2022-10-22T06:56:21;100580.66;;;15.53;91.56
10460;BME280;54412;51.206;6.888;2022-10-22T06:58:53;100575.16;;;15.43;92.25
10460;BME280;54412;51.206;6.888;2022-10-22T07:01:24;100577.47;;;15.48;91.48
10460;BME280;54412;51.206;6.888;2022-10-22T07:03:51;100560.56;;;15.49;91.50
10460;BME280;54412;51.206;6.888;2022-10-22T07:06:18;100553.34;;;15.51;91.58
10460;BME280;54412;51.206;6.888;2022-10-22T07:08:44;100543.75;;;15.61;90.80
10460;BME280;54412;51.206;6.888;2022-10-22T07:11:13;100548.53;;;15.68;90.69
10460;BME280;54412;51.206;6.888;2022-10-22T07:13:39;100550.69;;;15.87;89.94
10460;BME280;54412;51.206;6.888;2022-10-22T07:16:06;100556.13;;;15.86;89.35
10460;BME280;54412;51.206;6.888;2022-10-22T07:18:33;100556.19;;;15.97;89.07
10460;BME280;54412;51.206;6.888;2022-10-22T07:21:00;100563.63;;;16.04;88.03
10460;BME280;54412;51.206;6.888;2022-10-22T07:23:26;100565.59;;;16.13;87.46
10460;BME280;54412;51.206;6.888;2022-10-22T07:25:52;100564.28;;;15.95;88.36
10460;BME280;54412;51.206;6.888;2022-10-22T07:28:18;100570.75;;;16.04;87.95
10460;BME280;54412;51.206;6.888;2022-10-22T07:30:44;100570.56;;;16.18;87.29
10460;BME280;54412;51.206;6.888;2022-10-22T07:33:10;100573.56;;;16.37;86.21
10460;BME280;54412;51.206;6.888;2022-10-22T07:35:38;100580.22;;;16.42;85.75
10460;BME280;54412;51.206;6.888;2022-10-22T07:38:04;100577.16;;;16.48;85.41
10460;BME280;54412;51.206;6.888;2022-10-22T07:40:31;100584.50;;;16.45;85.47
10460;BME280;54412;51.206;6.888;2022-10-22T07:42:56;100584.50;;;16.45;84.91
10460;BME280;54412;51.206;6.888;2022-10-22T07:45:22;100592.88;;;16.51;84.63
10460;BME280;54412;51.206;6.888;2022-10-22T07:47:48;100595.09;;;16.57;84.77
10460;BME280;54412;51.206;6.888;2022-10-22T07:50:15;100592.78;;;16.53;84.68
10460;BME280;54412;51.206;6.888;2022-10-22T07:52:41;100599.72;;;16.43;85.10
10460;BME280;54412;51.206;6.888;2022-10-22T07:55:07;100603.56;;;16.39;85.60
10460;BME280;54412;51.206;6.888;2022-10-22T07:57:32;100614.53;;;16.47;85.67
10460;BME280;54412;51.206;6.888;2022-10-22T07:59:58;100611.94;;;16.58;85.39
10460;BME280;54412;51.206;6.888;2022-10-22T08:02:24;100608.78;;;16.64;84.47
10460;BME280;54412;51.206;6.888;2022-10-22T08:04:50;100619.66;;;16.85;83.04
10460;BME280;54412;51.206;6.888;2022-10-22T08:07:17;100624.72;;;16.88;81.92
10460;BME280;54412;51.206;6.888;2022-10-22T08:09:43;100625.38;;;16.56;83.68
10460;BME280;54412;51.206;6.888;2022-10-22T08:12:09;100634.31;;;16.55;83.26
10460;BME280;54412;51.206;6.888;2022-10-22T08:14:34;100634.31;;;16.55;83.37
10460;BME280;54412;51.206;6.888;2022-10-22T08:17:00;100640.75;;;16.40;83.73
10460;BME280;54412;51.206;6.888;2022-10-22T08:19:26;100638.84;;;16.30;84.30
10460;BME280;54412;51.206;6.888;2022-10-22T08:21:53;100650.84;;;16.48;82.71
10460;BME280;54412;51.206;6.888;2022-10-22T08:24:19;100640.81;;;16.28;83.79
10460;BME280;54412;51.206;6.888;2022-10-22T08:26:44;100648.56;;;16.31;83.85
10460;BME280;54412;51.206;6.888;2022-10-22T08:29:10;100652.69;;;16.47;82.80
10460;BME280;54412;51.206;6.888;2022-10-22T08:31:36;100654.25;;;16.37;83.81
10460;BME280;54412;51.206;6.888;2022-10-22T08:34:02;100654.31;;;16.25;84.84
10460;BME280;54412;51.206;6.888;2022-10-22T08:36:27;100666.13;;;16.33;83.59
10460;BME280;54412;51.206;6.888;2022-10-22T08:38:53;100660.66;;;16.47;82.70
10460;BME280;54412;51.206;6.888;2022-10-22T08:41:22;100667.38;;;16.40;83.65
10460;BME280;54412;51.206;6.888;2022-10-22T08:47:13;100679.69;;;16.41;82.80
10460;BME280;54412;51.206;6.888;2022-10-22T08:49:44;100675.69;;;16.36;83.36
10460;BME280;54412;51.206;6.888;2022-10-22T08:52:16;100670.75;;;16.42;83.00
10460;BME280;54412;51.206;6.888;2022-10-22T08:54:57;100674.09;;;16.33;83.80
10460;BME280;54412;51.206;6.888;2022-10-22T09:00:37;100688.53;;;16.54;82.35
10460;BME280;54412;51.206;6.888;2022-10-22T09:03:51;100692.56;;;16.60;82.02
10460;BME280;54412;51.206;6.888;2022-10-22T09:06:30;100687.34;;;16.58;82.23
10460;BME280;54412;51.206;6.888;2022-10-22T09:08:59;100694.75;;;16.66;81.99
10460;BME280;54412;51.206;6.888;2022-10-22T09:11:39;100701.38;;;16.60;80.99
10460;BME280;54412;51.206;6.888;2022-10-22T09:14:11;100707.31;;;16.64;80.14
10460;BME280;54412;51.206;6.888;2022-10-22T09:22:45;100711.75;;;16.76;78.53
10460;BME280;54412;51.206;6.888;2022-10-22T09:25:22;100704.44;;;16.91;76.96
10460;BME280;54412;51.206;6.888;2022-10-22T09:27:50;100709.97;;;16.88;78.64
10460;BME280;54412;51.206;6.888;2022-10-22T09:30:22;100712.94;;;16.72;77.87
10460;BME280;54412;51.206;6.888;2022-10-22T09:33:10;100724.97;;;16.78;77.83
10460;BME280;54412;51.206;6.888;2022-10-22T09:36:05;100711.34;;;16.69;78.15
10460;BME280;54412;51.206;6.888;2022-10-22T09:38:45;100715.50;;;16.73;78.59
10460;BME280;54412;51.206;6.888;2022-10-22T09:41:12;100716.00;;;16.79;78.00
10460;BME280;54412;51.206;6.888;2022-10-22T09:43:38;100717.09;;;16.76;77.55
10460;BME280;54412;51.206;6.888;2022-10-22T09:46:07;100721.13;;;16.82;77.63
10460;BME280;54412;51.206;6.888;2022-10-22T09:48:42;100721.84;;;16.84;76.96
10460;BME280;54412;51.206;6.888;2022-10-22T09:51:22;100721.25;;;16.91;77.21
10460;BME280;54412;51.206;6.888;2022-10-22T09:54:00;100731.09;;;16.91;77.43
10460;BME280;54412;51.206;6.888;2022-10-22T09:56:38;100727.91;;;16.86;76.81
10460;BME280;54412;51.206;6.888;2022-10-22T09:59:15;100729.44;;;16.77;76.07
10460;BME280;54412;51.206;6.888;2022-10-22T10:01:41;100731.34;;;16.75;77.76
10460;BME280;54412;51.206;6.888;2022-10-22T10:04:13;100735.06;;;16.85;77.47
10460;BME280;54412;51.206;6.888;2022-10-22T10:06:42;100740.59;;;16.82;76.78
10460;BME280;54412;51.206;6.888;2022-10-22T10:09:22;100744.06;;;16.95;76.02
10460;BME280;54412;51.206;6.888;2022-10-22T10:20:26;100758.50;;;17.04;74.94
10460;BME280;54412;51.206;6.888;2022-10-22T10:23:06;100762.66;;;17.08;75.40
10460;BME280;54412;51.206;6.888;2022-10-22T10:31:32;100774.78;;;16.88;75.23
10460;BME280;54412;51.206;6.888;2022-10-22T10:37:24;100769.78;;;17.07;73.88
10460;BME280;54412;51.206;6.888;2022-10-22T10:40:13;100778.81;;;16.94;73.35
10460;BME280;54412;51.206;6.888;2022-10-22T10:43:20;100784.50;;;16.89;72.90
10460;BME280;54412;51.206;6.888;2022-10-22T10:46:27;100778.56;;;16.97;73.02
10460;BME280;54412;51.206;6.888;2022-10-22T10:49:07;100781.41;;;17.06;71.90
10460;BME280;54412;51.206;6.888;2022-10-22T10:55:21;100782.91;;;17.10;71.70
10460;BME280;54412;51.206;6.888;2022-10-22T10:58:18;100786.06;;;17.15;71.67
10460;BME280;54412;51.206;6.888;2022-10-22T11:01:02;100783.72;;;17.11;71.59
10460;BME280;54412;51.206;6.888;2022-10-22T11:03:51;100775.97;;;17.08;71.77
10460;BME280;54412;51.206;6.888;2022-10-22T11:06:21;100789.91;;;17.11;71.63
10460;BME280;54412;51.206;6.888;2022-10-22T11:09:18;100782.78;;;17.12;70.55
10460;BME280;54412;51.206;6.888;2022-10-22T11:11:56;100789.59;;;17.16;70.17
10460;BME280;54412;51.206;6.888;2022-10-22T11:18:11;100793.25;;;17.02;70.12
10460;BME280;54412;51.206;6.888;2022-10-22T11:21:16;100801.59;;;16.98;70.05
10460;BME280;54412;51.206;6.888;2022-10-22T11:23:47;100801.81;;;16.95;69.99
10460;BME280;54412;51.206;6.888;2022-10-22T11:26:39;100800.13;;;16.94;70.19
10460;BME280;54412;51.206;6.888;2022-10-22T11:29:12;100801.31;;;16.90;70.38
10460;BME280;54412;51.206;6.888;2022-10-22T11:31:40;100803.03;;;16.91;70.39
10460;BME280;54412;51.206;6.888;2022-10-22T11:34:21;100805.16;;;16.86;70.32
10460;BME280;54412;51.206;6.888;2022-10-22T11:36:49;100797.59;;;16.92;70.61
10460;BME280;54412;51.206;6.888;2022-10-22T11:39:41;100799.63;;;16.89;69.98
10460;BME280;54412;51.206;6.888;2022-10-22T11:42:20;100801.50;;;16.99;69.82
10460;BME280;54412;51.206;6.888;2022-10-22T11:45:00;100797.09;;;16.98;70.43
10460;BME280;54412;51.206;6.888;2022-10-22T11:47:52;100802.78;;;16.94;70.42
10460;BME280;54412;51.206;6.888;2022-10-22T11:50:42;100791.28;;;16.93;69.33
10460;BME280;54412;51.206;6.888;2022-10-22T12:03:37;100788.81;;;17.37;67.52
10460;BME280;54412;51.206;6.888;2022-10-22T12:11:38;100788.91;;;17.59;65.55
10460;BME280;54412;51.206;6.888;2022-10-22T12:14:37;100779.59;;;17.65;66.52
10460;BME280;54412;51.206;6.888;2022-10-22T12:17:16;100789.66;;;17.61;66.45
10460;BME280;54412;51.206;6.888;2022-10-22T12:19:47;100784.81;;;17.55;64.56
10460;BME280;54412;51.206;6.888;2022-10-22T12:22:27;100781.09;;;17.45;65.86
10460;BME280;54412;51.206;6.888;2022-10-22T12:24:58;100790.81;;;17.46;65.42
10460;BME280;54412;51.206;6.888;2022-10-22T12:27:27;100786.00;;;17.51;64.66
10460;BME280;54412;51.206;6.888;2022-10-22T12:29:59;100791.56;;;17.59;65.00
10460;BME280;54412;51.206;6.888;2022-10-22T12:32:37;100783.66;;;17.47;65.52
10460;BME280;54412;51.206;6.888;2022-10-22T12:35:14;100789.84;;;17.47;65.48
10460;BME280;54412;51.206;6.888;2022-10-22T12:37:39;100784.56;;;17.35;65.39
10460;BME280;54412;51.206;6.888;2022-10-22T12:40:21;100782.91;;;17.45;65.31
10460;BME280;54412;51.206;6.888;2022-10-22T12:43:10;100781.28;;;17.55;64.35
10460;BME280;54412;51.206;6.888;2022-10-22T12:45:36;100773.22;;;17.44;65.13
10460;BME280;54412;51.206;6.888;2022-10-22T12:48:13;100784.72;;;17.44;63.49
10460;BME280;54412;51.206;6.888;2022-10-22T12:50:42;100777.13;;;17.51;64.20
10460;BME280;54412;51.206;6.888;2022-10-22T12:53:32;100779.56;;;17.54;64.39
10460;BME280;54412;51.206;6.888;2022-10-22T12:56:04;100777.47;;;17.46;64.84
10460;BME280;54412;51.206;6.888;2022-10-22T12:58:39;100774.06;;;17.44;64.36
10460;BME280;54412;51.206;6.888;2022-10-22T13:01:06;100777.75;;;17.54;64.10
10460;BME280;54412;51.206;6.888;2022-10-22T13:03:48;100773.53;;;17.63;63.52
10460;BME280;54412;51.206;6.888;2022-10-22T13:11:33;100776.47;;;17.71;63.11
10460;BME280;54412;51.206;6.888;2022-10-22T13:14:04;100778.19;;;17.83;62.92
10460;BME280;54412;51.206;6.888;2022-10-22T13:16:31;100775.28;;;17.86;63.59
10460;BME280;54412;51.206;6.888;2022-10-22T13:18:57;100783.28;;;17.97;62.71
10460;BME280;54412;51.206;6.888;2022-10-22T13:21:27;100788.69;;;18.41;60.02
10460;BME280;54412;51.206;6.888;2022-10-22T13:24:02;100776.72;;;18.67;60.48
10460;BME280;54412;51.206;6.888;2022-10-22T13:26:48;100792.78;;;18.56;59.56
10460;BME280;54412;51.206;6.888;2022-10-22T13:29:17;100789.50;;;18.53;59.69
10460;BME280;54412;51.206;6.888;2022-10-22T13:31:48;100792.31;;;18.29;59.83
10460;BME280;54412;51.206;6.888;2022-10-22T13:34:22;100783.34;;;18.41;59.63
10460;BME280;54412;51.206;6.888;2022-10-22T13:36:49;100783.66;;;18.37;60.23
10460;BME280;54412;51.206;6.888;2022-10-22T13:39:19;100781.38;;;18.32;60.57
10460;BME280;54412;51.206;6.888;2022-10-22T13:41:45;100780.19;;;18.47;60.19
10460;BME280;54412;51.206;6.888;2022-10-22T13:44:11;100784.66;;;18.36;60.96
10460;BME280;54412;51.206;6.888;2022-10-22T13:46:38;100777.25;;;18.28;61.56
10460;BME280;54412;51.206;6.888;2022-10-22T13:49:17;100785.25;;;18.39;60.73
10460;BME280;54412;51.206;6.888;2022-10-22T13:51:44;100785.97;;;18.30;60.95
10460;BME280;54412;51.206;6.888;2022-10-22T13:54:23;100781.72;;;18.28;60.71
10460;BME280;54412;51.206;6.888;2022-10-22T13:56:49;100790.59;;;18.28;60.04
10460;BME280;54412;51.206;6.888;2022-10-22T13:59:14;100785.34;;;18.05;61.97
10460;BME280;54412;51.206;6.888;2022-10-22T14:01:40;100789.50;;;18.20;61.26
10460;BME280;54412;51.206;6.888;2022-10-22T14:04:11;100789.84;;;18.26;60.85
10460;BME280;54412;51.206;6.888;2022-10-22T14:06:38;100787.56;;;18.11;62.20
10460;BME280;54412;51.206;6.888;2022-10-22T14:09:09;100789.38;;;18.10;61.86
10460;BME280;54412;51.206;6.888;2022-10-22T14:11:36;100787.69;;;18.20;61.23
10460;BME280;54412;51.206;6.888;2022-10-22T14:14:02;100793.38;;;18.05;62.26
10460;BME280;54412;51.206;6.888;2022-10-22T14:16:31;100783.69;;;18.15;62.46
10460;BME280;54412;51.206;6.888;2022-10-22T14:18:58;100774.56;;;18.06;63.42
10460;BME280;54412;51.206;6.888;2022-10-22T14:21:24;100774.31;;;18.31;61.66
10460;BME280;54412;51.206;6.888;2022-10-22T14:23:49;100781.72;;;18.28;62.29
10460;BME280;54412;51.206;6.888;2022-10-22T14:26:25;100770.34;;;18.26;62.95
10460;BME280;54412;51.206;6.888;2022-10-22T14:28:53;100775.78;;;18.24;63.65
10460;BME280;54412;51.206;6.888;2022-10-22T14:31:19;100776.25;;;18.40;62.57